Terminal Aerodrome Forecast
Issued by NWS

Home | Current Version | Previous Version | Text Only | Print | Product List | Glossary On
Versions: 1 2 3 4 5 6 7 8 9 10 11 12 13 14 15 16 17
000
FTUS46 KMTR 290500
TAFSNS
TAF
KSNS 290529Z 2906/3006 28008KT P6SM OVC004
     FM290800 00000KT P6SM OVC004
     FM291700 29007KT P6SM SKC
     FM292000 28015KT P6SM SKC
     FM300300 28009KT P6SM OVC008=

USA.gov is the U.S. government's official web portal to all federal, state and local government web resources and services.